createdAt,value
2022-10-29T00:00:58.150Z,13.10
2022-10-29T00:03:26.619Z,13.10
2022-10-29T00:05:59.351Z,13.00
2022-10-29T00:08:26.964Z,13.00
2022-10-29T00:10:54.046Z,13.00
2022-10-29T00:13:21.287Z,13.00
2022-10-29T00:15:48.393Z,13.00
2022-10-29T00:18:15.560Z,13.00
2022-10-29T00:20:42.631Z,13.00
2022-10-29T00:23:09.745Z,13.00
2022-10-29T00:25:36.784Z,13.00
2022-10-29T00:28:03.904Z,13.00
2022-10-29T00:30:31.056Z,13.00
2022-10-29T00:32:58.296Z,13.00
2022-10-29T00:35:26.295Z,13.00
2022-10-29T00:37:53.626Z,13.00
2022-10-29T00:40:21.032Z,13.00
2022-10-29T00:42:48.180Z,13.00
2022-10-29T00:45:20.915Z,13.00
2022-10-29T00:47:53.082Z,13.00
2022-10-29T00:50:22.077Z,13.00
2022-10-29T00:52:50.635Z,13.00
2022-10-29T00:55:19.541Z,13.00
2022-10-29T00:57:53.561Z,13.00
2022-10-29T01:00:21.988Z,13.00
2022-10-29T01:02:49.695Z,13.00
2022-10-29T01:05:21.542Z,13.00
2022-10-29T01:07:48.876Z,13.00
2022-10-29T01:10:22.786Z,13.00
2022-10-29T01:13:54.004Z,13.00
2022-10-29T01:16:39.068Z,13.10
2022-10-29T01:19:37.668Z,13.10
2022-10-29T01:22:29.216Z,13.10
2022-10-29T01:26:11.934Z,13.10
2022-10-29T01:28:56.183Z,13.10
2022-10-29T01:31:38.912Z,13.10
2022-10-29T01:34:40.884Z,13.10
2022-10-29T01:37:28.747Z,13.10
2022-10-29T01:40:36.233Z,13.10
2022-10-29T01:43:14.221Z,13.10
2022-10-29T01:45:54.506Z,13.10
2022-10-29T01:48:33.170Z,13.10
2022-10-29T01:51:12.040Z,13.00
2022-10-29T01:53:40.410Z,13.10
2022-10-29T01:56:07.657Z,13.10
2022-10-29T01:58:37.882Z,13.10
2022-10-29T02:01:32.209Z,13.10
2022-10-29T02:04:21.621Z,13.10
2022-10-29T02:07:26.768Z,13.10
2022-10-29T02:10:14.553Z,13.10
2022-10-29T02:12:51.946Z,13.10
2022-10-29T02:15:25.906Z,13.10
2022-10-29T02:17:53.383Z,13.00
2022-10-29T02:20:20.798Z,13.00
2022-10-29T02:22:47.884Z,13.00
2022-10-29T02:25:15.565Z,13.00
2022-10-29T02:27:42.663Z,13.00
2022-10-29T02:30:10.370Z,13.00
2022-10-29T02:32:38.532Z,12.90
2022-10-29T02:35:06.258Z,12.90
2022-10-29T02:37:33.383Z,12.90
2022-10-29T02:40:00.436Z,12.90
2022-10-29T02:42:27.477Z,12.90
2022-10-29T02:44:54.506Z,12.90
2022-10-29T02:47:21.569Z,12.80
2022-10-29T02:49:48.588Z,12.80
2022-10-29T02:52:15.664Z,12.90
2022-10-29T02:54:43.016Z,12.80
2022-10-29T02:57:10.075Z,12.90
2022-10-29T02:59:37.320Z,12.90
2022-10-29T03:02:04.508Z,12.90
2022-10-29T03:04:31.644Z,12.90
2022-10-29T03:06:58.955Z,12.90
2022-10-29T03:09:26.168Z,12.90
2022-10-29T03:11:53.251Z,12.90
2022-10-29T03:14:20.311Z,12.90
2022-10-29T03:16:47.346Z,12.90
2022-10-29T03:19:14.398Z,12.90
2022-10-29T03:21:41.484Z,12.90
2022-10-29T03:24:08.662Z,12.90
2022-10-29T03:26:35.683Z,12.90
2022-10-29T03:29:02.805Z,12.90
2022-10-29T03:31:29.839Z,12.90
2022-10-29T03:33:56.980Z,12.90
2022-10-29T03:36:24.104Z,12.90
2022-10-29T03:38:51.192Z,12.90
2022-10-29T03:41:18.277Z,12.90
2022-10-29T03:43:45.414Z,12.90
2022-10-29T03:46:12.503Z,12.80
2022-10-29T03:48:39.554Z,12.80
2022-10-29T03:51:07.748Z,12.80
2022-10-29T03:53:37.155Z,12.80
2022-10-29T03:56:05.444Z,12.80
2022-10-29T03:58:32.752Z,12.80
2022-10-29T04:01:03.115Z,12.90
2022-10-29T04:03:32.362Z,12.90
2022-10-29T04:06:02.443Z,12.90
2022-10-29T04:08:30.145Z,12.90
2022-10-29T04:10:57.176Z,12.90
2022-10-29T04:13:24.253Z,12.90
2022-10-29T04:15:55.575Z,12.90
2022-10-29T04:18:24.365Z,12.90
2022-10-29T04:29:12.665Z,12.90
2022-10-29T04:31:39.981Z,12.90
2022-10-29T04:34:07.135Z,12.90
2022-10-29T04:36:34.243Z,12.90
2022-10-29T04:39:01.409Z,12.90
2022-10-29T04:41:28.728Z,12.90
2022-10-29T04:43:55.801Z,12.90
2022-10-29T04:46:22.881Z,12.90
2022-10-29T04:48:50.009Z,12.90
2022-10-29T04:51:26.044Z,12.90
2022-10-29T04:53:53.418Z,12.90
2022-10-29T04:56:20.578Z,12.90
2022-10-29T04:58:50.948Z,12.90
2022-10-29T05:01:18.475Z,12.90
2022-10-29T05:03:45.692Z,12.90
2022-10-29T05:06:12.837Z,12.90
2022-10-29T05:08:39.892Z,12.90
2022-10-29T05:11:07.495Z,12.90
2022-10-29T05:13:35.448Z,12.90
2022-10-29T05:16:02.665Z,12.90
2022-10-29T05:18:29.723Z,12.90
2022-10-29T05:20:57.910Z,12.90
2022-10-29T05:23:25.210Z,12.90
2022-10-29T05:25:52.597Z,12.90
2022-10-29T05:28:22.720Z,12.90
2022-10-29T05:30:52.494Z,12.90
2022-10-29T05:33:24.856Z,12.90
2022-10-29T05:35:52.662Z,12.90
2022-10-29T05:38:20.097Z,12.90
2022-10-29T05:40:47.347Z,12.90
2022-10-29T05:43:18.036Z,12.90
2022-10-29T05:45:45.734Z,12.80
2022-10-29T05:48:13.507Z,12.80
2022-10-29T05:50:40.898Z,12.80
2022-10-29T05:53:12.597Z,12.80
2022-10-29T05:55:40.083Z,12.80
2022-10-29T05:58:11.960Z,12.80
2022-10-29T06:00:43.175Z,12.80
2022-10-29T06:03:16.694Z,12.80
2022-10-29T06:05:43.838Z,12.80
2022-10-29T06:08:10.948Z,12.80
2022-10-29T06:10:38.096Z,12.80
2022-10-29T06:13:18.355Z,12.80
2022-10-29T06:15:47.332Z,12.80
2022-10-29T06:18:15.397Z,12.80
2022-10-29T06:20:43.756Z,12.80
2022-10-29T06:23:11.740Z,12.80
2022-10-29T06:25:38.893Z,12.80
2022-10-29T06:28:19.103Z,12.80
2022-10-29T06:30:49.248Z,12.80
2022-10-29T06:33:18.373Z,12.80
2022-10-29T06:35:45.985Z,12.80
2022-10-29T06:38:13.678Z,12.80
2022-10-29T06:40:41.779Z,12.80
2022-10-29T06:43:12.035Z,12.80
2022-10-29T06:45:39.302Z,12.80
2022-10-29T06:48:06.859Z,12.80
2022-10-29T06:50:34.329Z,12.80
2022-10-29T06:53:07.484Z,12.80
2022-10-29T06:55:34.966Z,12.80
2022-10-29T06:58:10.944Z,12.80
2022-10-29T07:00:38.152Z,12.80
2022-10-29T07:03:05.571Z,12.80
2022-10-29T07:05:33.688Z,12.80
2022-10-29T07:08:01.962Z,12.90
2022-10-29T07:10:31.869Z,12.90
2022-10-29T07:12:59.342Z,12.90
2022-10-29T07:15:29.558Z,12.90
2022-10-29T07:18:03.083Z,12.90
2022-10-29T07:20:33.618Z,12.90
2022-10-29T07:23:01.552Z,12.90
2022-10-29T07:25:30.003Z,12.90
2022-10-29T07:28:10.494Z,13.00
2022-10-29T07:30:37.672Z,13.00
2022-10-29T07:33:04.938Z,13.00
2022-10-29T07:35:34.249Z,13.00
2022-10-29T07:38:07.100Z,13.00
2022-10-29T07:40:36.219Z,12.90
2022-10-29T07:43:03.272Z,12.90
2022-10-29T07:45:30.442Z,13.00
2022-10-29T07:48:03.436Z,13.00
2022-10-29T07:50:32.205Z,13.00
2022-10-29T07:53:03.217Z,13.00
2022-10-29T07:58:10.073Z,13.00
2022-10-29T08:00:39.602Z,13.00
2022-10-29T08:03:07.283Z,13.00
2022-10-29T08:05:35.044Z,13.10
2022-10-29T08:08:02.301Z,13.10
2022-10-29T08:10:30.848Z,13.10
2022-10-29T08:13:01.727Z,13.10
2022-10-29T08:15:31.370Z,13.10
2022-10-29T08:17:59.748Z,13.10
2022-10-29T08:20:28.786Z,13.10
2022-10-29T08:22:58.489Z,13.10
2022-10-29T08:25:26.224Z,13.10
2022-10-29T08:28:05.060Z,13.00
2022-10-29T08:30:33.142Z,13.10
2022-10-29T08:33:01.066Z,13.10
2022-10-29T08:35:28.901Z,13.10
2022-10-29T08:37:56.202Z,13.10
2022-10-29T08:40:59.076Z,13.20
2022-10-29T08:43:46.972Z,13.20
2022-10-29T08:47:09.215Z,13.20
2022-10-29T08:50:23.398Z,13.20
2022-10-29T08:52:58.686Z,13.20
2022-10-29T08:55:37.333Z,13.10
2022-10-29T08:58:21.640Z,13.10
2022-10-29T09:00:59.871Z,13.10
2022-10-29T09:03:30.029Z,13.20
2022-10-29T09:06:24.195Z,13.20
2022-10-29T09:09:21.273Z,13.20
2022-10-29T09:12:13.676Z,13.20
2022-10-29T09:14:53.351Z,13.20
2022-10-29T09:17:38.703Z,13.10
2022-10-29T09:20:20.843Z,13.10
2022-10-29T09:23:53.500Z,13.20
2022-10-29T09:26:52.668Z,13.20
2022-10-29T09:29:34.276Z,13.20
2022-10-29T09:32:08.934Z,13.20
2022-10-29T09:34:52.347Z,13.30
2022-10-29T09:37:54.661Z,13.20
2022-10-29T09:40:38.963Z,13.20
2022-10-29T09:43:32.361Z,13.30
2022-10-29T09:46:37.051Z,13.20
2022-10-29T09:49:39.181Z,13.30
2022-10-29T09:52:24.341Z,13.30
2022-10-29T09:54:53.501Z,13.30
2022-10-29T09:57:29.376Z,13.40
2022-10-29T10:00:04.821Z,13.30
2022-10-29T10:02:36.294Z,13.40
2022-10-29T10:05:25.934Z,13.40
2022-10-29T10:08:09.609Z,13.40
2022-10-29T10:10:53.629Z,13.40
2022-10-29T10:13:29.137Z,13.40
2022-10-29T10:16:02.119Z,13.50
2022-10-29T10:18:31.993Z,13.50
2022-10-29T10:21:27.486Z,13.50
2022-10-29T10:23:57.701Z,13.50
2022-10-29T10:26:43.169Z,13.50
2022-10-29T10:29:10.978Z,13.50
2022-10-29T10:31:39.886Z,13.60
2022-10-29T10:34:23.562Z,13.60
2022-10-29T10:37:07.359Z,13.60
2022-10-29T10:39:39.390Z,13.60
2022-10-29T10:42:39.477Z,13.60
2022-10-29T10:45:40.234Z,13.60
2022-10-29T10:48:14.655Z,13.60
2022-10-29T10:50:41.810Z,13.70
2022-10-29T10:53:22.428Z,13.70
2022-10-29T10:55:58.042Z,13.70
2022-10-29T10:58:39.234Z,13.70
2022-10-29T11:01:14.209Z,13.70
2022-10-29T11:03:48.993Z,13.80
2022-10-29T11:06:27.798Z,13.80
2022-10-29T11:09:12.801Z,13.80
2022-10-29T11:12:25.861Z,13.80
2022-10-29T11:15:14.021Z,13.90
2022-10-29T11:18:03.215Z,13.90
2022-10-29T11:20:37.101Z,13.90
2022-10-29T11:23:34.342Z,13.90
2022-10-29T11:26:13.314Z,13.90
2022-10-29T11:29:09.433Z,13.90
2022-10-29T11:32:19.610Z,13.90
2022-10-29T11:35:13.953Z,13.90
2022-10-29T11:37:48.083Z,13.90
2022-10-29T11:40:50.857Z,13.90
2022-10-29T11:43:21.477Z,13.90
2022-10-29T11:46:17.379Z,14.00
2022-10-29T11:48:50.974Z,14.00
2022-10-29T11:51:27.781Z,14.00
2022-10-29T11:54:37.916Z,14.00
2022-10-29T11:57:47.129Z,14.00
2022-10-29T12:00:17.582Z,14.00
2022-10-29T12:03:15.428Z,14.00
2022-10-29T12:05:59.785Z,14.00
2022-10-29T12:08:51.206Z,14.00
2022-10-29T12:11:45.642Z,14.00
2022-10-29T12:14:25.250Z,14.00
2022-10-29T12:17:10.318Z,14.10
2022-10-29T12:20:23.526Z,14.00
2022-10-29T12:23:04.329Z,14.00
2022-10-29T12:25:41.527Z,14.00
2022-10-29T12:28:36.343Z,14.00
2022-10-29T12:31:29.243Z,14.00
2022-10-29T12:34:34.062Z,14.00
2022-10-29T12:37:48.713Z,14.00
2022-10-29T12:40:24.841Z,14.00
2022-10-29T12:42:53.119Z,14.00
2022-10-29T12:46:19.445Z,14.00
2022-10-29T12:48:50.352Z,13.90
2022-10-29T12:51:27.633Z,13.90
2022-10-29T12:54:34.025Z,13.90
2022-10-29T12:57:19.534Z,13.90
2022-10-29T12:59:46.600Z,13.90
2022-10-29T13:02:28.381Z,13.90
2022-10-29T13:05:09.728Z,13.90
2022-10-29T13:07:59.443Z,13.90
2022-10-29T13:10:36.023Z,13.90
2022-10-29T13:13:20.372Z,14.00
2022-10-29T13:16:01.906Z,13.90
2022-10-29T13:18:41.667Z,13.90
2022-10-29T13:21:09.534Z,13.90
2022-10-29T13:23:37.978Z,13.90
2022-10-29T13:26:08.936Z,13.90
2022-10-29T13:28:35.861Z,13.90
2022-10-29T13:31:08.869Z,13.90
2022-10-29T13:33:38.790Z,14.00
2022-10-29T13:36:15.346Z,13.90
2022-10-29T13:39:04.964Z,13.90
2022-10-29T13:41:44.282Z,13.90
2022-10-29T13:44:23.034Z,13.80
2022-10-29T13:47:03.490Z,13.80
2022-10-29T13:49:45.245Z,13.80
2022-10-29T13:52:19.240Z,13.80
2022-10-29T13:55:05.223Z,13.80
2022-10-29T13:57:32.331Z,13.80
2022-10-29T14:00:06.925Z,13.80
2022-10-29T14:02:39.062Z,13.80
2022-10-29T14:05:21.588Z,13.80
2022-10-29T14:08:35.257Z,13.80
2022-10-29T14:11:22.418Z,13.80
2022-10-29T14:13:53.192Z,13.80
2022-10-29T14:16:29.218Z,13.80
2022-10-29T14:18:56.341Z,13.80
2022-10-29T14:21:29.902Z,13.70
2022-10-29T14:24:04.268Z,13.70
2022-10-29T14:26:35.609Z,13.70
2022-10-29T14:29:25.663Z,13.70
2022-10-29T14:32:18.569Z,13.70
2022-10-29T14:34:50.441Z,13.70
2022-10-29T14:37:25.722Z,13.70
2022-10-29T14:40:01.277Z,13.60
2022-10-29T14:42:40.414Z,13.70
2022-10-29T14:45:19.705Z,13.60
2022-10-29T14:47:57.402Z,13.60
2022-10-29T14:50:27.945Z,13.60
2022-10-29T14:53:08.590Z,13.60
2022-10-29T14:55:42.047Z,13.60
2022-10-29T14:58:12.211Z,13.60
2022-10-29T15:00:50.539Z,13.60
2022-10-29T15:03:23.664Z,13.60
2022-10-29T15:05:51.210Z,13.60
2022-10-29T15:08:29.560Z,13.60
2022-10-29T15:10:58.266Z,13.50
2022-10-29T15:13:34.569Z,13.50
2022-10-29T15:16:18.596Z,13.50
2022-10-29T15:18:54.079Z,13.50
2022-10-29T15:21:33.146Z,13.50
2022-10-29T15:24:06.572Z,13.50
2022-10-29T15:26:43.655Z,13.50
2022-10-29T15:29:12.571Z,13.50
2022-10-29T15:31:53.724Z,13.40
2022-10-29T15:34:37.582Z,13.40
2022-10-29T15:37:19.647Z,13.40
2022-10-29T15:40:12.297Z,13.40
2022-10-29T15:42:40.488Z,13.40
2022-10-29T15:45:07.559Z,13.40
2022-10-29T15:47:37.338Z,13.40
2022-10-29T15:50:09.476Z,13.40
2022-10-29T15:52:47.770Z,13.40
2022-10-29T15:55:30.973Z,13.40
2022-10-29T15:58:17.785Z,13.40
2022-10-29T16:00:44.918Z,13.40
2022-10-29T16:03:26.619Z,13.40
2022-10-29T16:06:06.377Z,13.40
2022-10-29T16:08:47.674Z,13.30
2022-10-29T16:11:22.342Z,13.40
2022-10-29T16:13:54.760Z,13.40
2022-10-29T16:16:25.204Z,13.40
2022-10-29T16:18:52.897Z,13.30
2022-10-29T16:21:25.963Z,13.30
2022-10-29T16:23:53.462Z,13.30
2022-10-29T16:26:24.083Z,13.30
2022-10-29T16:28:54.736Z,13.30
2022-10-29T16:31:29.189Z,13.20
2022-10-29T16:34:03.819Z,13.30
2022-10-29T16:36:31.052Z,13.20
2022-10-29T16:38:58.355Z,13.30
2022-10-29T16:41:25.689Z,13.20
2022-10-29T16:43:53.082Z,13.30
2022-10-29T16:46:20.281Z,13.30
2022-10-29T16:48:47.476Z,13.30
2022-10-29T16:51:14.577Z,13.30
2022-10-29T16:53:41.940Z,13.20
2022-10-29T16:56:09.183Z,13.30
2022-10-29T16:58:36.826Z,13.30
2022-10-29T17:01:10.577Z,13.20
2022-10-29T17:03:39.581Z,13.20
2022-10-29T17:06:10.234Z,13.20
2022-10-29T17:08:38.699Z,13.20
2022-10-29T17:11:10.197Z,13.20
2022-10-29T17:13:38.587Z,13.30
2022-10-29T17:16:14.811Z,13.20
2022-10-29T17:18:42.014Z,13.20
2022-10-29T17:21:09.212Z,13.20
2022-10-29T17:23:36.562Z,13.20
2022-10-29T17:26:04.331Z,13.20
2022-10-29T17:28:35.569Z,13.20
2022-10-29T17:31:06.814Z,13.20
2022-10-29T17:33:34.510Z,13.20
2022-10-29T17:36:15.630Z,13.20
2022-10-29T17:38:43.047Z,13.20
2022-10-29T17:41:10.341Z,13.20
2022-10-29T17:43:37.796Z,13.20
2022-10-29T17:46:05.810Z,13.10
2022-10-29T17:48:33.649Z,13.20
2022-10-29T17:51:03.531Z,13.20
2022-10-29T17:53:31.950Z,13.20
2022-10-29T17:56:01.035Z,13.20
2022-10-29T17:58:29.142Z,13.20
2022-10-29T18:01:08.055Z,13.10
2022-10-29T18:03:36.983Z,13.10
2022-10-29T18:06:08.320Z,13.20
2022-10-29T18:08:41.955Z,13.20
2022-10-29T18:11:12.508Z,13.10
2022-10-29T18:13:42.685Z,13.10
2022-10-29T18:16:12.940Z,13.10
2022-10-29T18:18:54.488Z,13.10
2022-10-29T18:21:29.754Z,13.10
2022-10-29T18:23:58.184Z,13.10
2022-10-29T18:26:32.194Z,13.10
2022-10-29T18:29:02.802Z,13.10
2022-10-29T18:31:31.592Z,13.10
2022-10-29T18:34:02.974Z,13.10
2022-10-29T18:36:30.448Z,13.10
2022-10-29T18:38:59.889Z,13.10
2022-10-29T18:41:27.340Z,13.10
2022-10-29T18:43:55.458Z,13.10
2022-10-29T18:46:23.067Z,13.10
2022-10-29T18:48:51.375Z,13.10
2022-10-29T18:51:39.713Z,13.10
2022-10-29T18:54:07.786Z,13.10
2022-10-29T18:56:35.704Z,13.10
2022-10-29T18:59:03.829Z,13.10
2022-10-29T19:01:34.689Z,13.10
2022-10-29T19:04:06.344Z,13.10
2022-10-29T19:06:36.682Z,13.10
2022-10-29T19:09:07.516Z,13.10
2022-10-29T19:11:35.173Z,13.00
2022-10-29T19:14:06.457Z,13.10
2022-10-29T19:16:36.708Z,13.00
2022-10-29T19:19:12.903Z,13.00
2022-10-29T19:21:42.310Z,13.00
2022-10-29T19:24:14.575Z,13.00
2022-10-29T19:26:42.351Z,13.00
2022-10-29T19:29:12.874Z,13.00
2022-10-29T19:31:40.751Z,13.00
2022-10-29T19:34:08.641Z,13.00
2022-10-29T19:36:40.300Z,13.00
2022-10-29T19:39:08.418Z,13.00
2022-10-29T19:41:36.045Z,13.00
2022-10-29T19:44:04.241Z,13.00
2022-10-29T19:46:32.220Z,13.00
2022-10-29T19:49:01.118Z,13.00
2022-10-29T19:51:29.908Z,13.00
2022-10-29T19:53:58.703Z,13.00
2022-10-29T19:56:26.218Z,13.00
2022-10-29T19:58:54.210Z,12.90
2022-10-29T20:01:21.891Z,13.00
2022-10-29T20:03:49.311Z,12.90
2022-10-29T20:06:18.112Z,12.90
2022-10-29T20:08:46.133Z,12.90
2022-10-29T20:11:13.944Z,12.90
2022-10-29T20:13:41.704Z,12.90
2022-10-29T20:16:12.855Z,12.90
2022-10-29T20:18:40.320Z,12.90
2022-10-29T20:21:08.267Z,12.90
2022-10-29T20:23:36.495Z,12.90
2022-10-29T20:26:04.954Z,12.90
2022-10-29T20:28:32.762Z,12.90
2022-10-29T20:31:37.196Z,12.90
2022-10-29T20:34:09.706Z,12.80
2022-10-29T20:36:37.879Z,12.80
2022-10-29T20:39:05.270Z,12.80
2022-10-29T20:41:32.687Z,12.80
2022-10-29T20:44:01.495Z,12.80
2022-10-29T20:46:29.539Z,12.70
2022-10-29T20:48:57.101Z,12.70
2022-10-29T20:51:25.289Z,12.70
2022-10-29T20:53:53.506Z,12.70
2022-10-29T20:56:24.145Z,12.70
2022-10-29T20:58:51.440Z,12.80
2022-10-29T21:01:21.716Z,12.70
2022-10-29T21:03:50.670Z,12.80
2022-10-29T21:06:19.166Z,12.70
2022-10-29T21:08:48.251Z,12.80
2022-10-29T21:11:17.509Z,12.70
2022-10-29T21:13:45.508Z,12.70
2022-10-29T21:16:20.934Z,12.70
2022-10-29T21:18:51.793Z,12.60
2022-10-29T21:21:19.417Z,12.60
2022-10-29T21:23:47.185Z,12.60
2022-10-29T21:26:20.657Z,12.60
2022-10-29T21:28:49.604Z,12.60
2022-10-29T21:31:18.036Z,12.60
2022-10-29T21:33:45.541Z,12.60
2022-10-29T21:36:16.409Z,12.60
2022-10-29T21:38:43.539Z,12.60
2022-10-29T21:41:11.256Z,12.60
2022-10-29T21:43:39.249Z,12.50
2022-10-29T21:46:07.099Z,12.50
2022-10-29T21:48:34.353Z,12.50
2022-10-29T21:51:11.733Z,12.50
2022-10-29T21:53:38.979Z,12.50
2022-10-29T21:56:09.794Z,12.50
2022-10-29T21:58:36.985Z,12.40
2022-10-29T22:01:06.873Z,12.50
2022-10-29T22:03:36.011Z,12.40
2022-10-29T22:06:11.166Z,12.50
2022-10-29T22:08:38.431Z,12.50
2022-10-29T22:13:51.981Z,12.40
2022-10-29T22:16:20.088Z,12.40
2022-10-29T22:18:47.429Z,12.40
2022-10-29T22:21:23.470Z,12.40
2022-10-29T22:23:56.731Z,12.40
2022-10-29T22:26:28.786Z,12.40
2022-10-29T22:28:56.173Z,12.40
2022-10-29T22:31:24.627Z,12.30
2022-10-29T22:33:51.990Z,12.30
2022-10-29T22:36:25.554Z,12.30
2022-10-29T22:38:58.402Z,12.30
2022-10-29T22:41:26.965Z,12.30
2022-10-29T22:44:03.098Z,12.40
2022-10-29T22:46:30.854Z,12.40
2022-10-29T22:48:58.176Z,12.40
2022-10-29T22:51:28.143Z,12.40
2022-10-29T22:53:55.436Z,12.40
2022-10-29T22:56:35.046Z,12.40
2022-10-29T22:59:03.598Z,12.40
2022-10-29T23:01:37.424Z,12.40
2022-10-29T23:04:07.580Z,12.40
2022-10-29T23:06:34.843Z,12.40
2022-10-29T23:09:02.006Z,12.40
2022-10-29T23:11:32.216Z,12.40
2022-10-29T23:14:01.532Z,12.40
2022-10-29T23:16:31.697Z,12.40
2022-10-29T23:19:02.372Z,12.40
2022-10-29T23:21:29.947Z,12.40
2022-10-29T23:23:57.171Z,12.40
2022-10-29T23:26:25.805Z,12.40
2022-10-29T23:28:53.018Z,12.40
2022-10-29T23:31:26.595Z,12.40
2022-10-29T23:33:56.289Z,12.40
2022-10-29T23:36:25.782Z,12.40
2022-10-29T23:39:01.523Z,12.40
2022-10-29T23:41:29.486Z,12.40
2022-10-29T23:43:57.171Z,12.40
2022-10-29T23:46:24.364Z,12.40
2022-10-29T23:48:51.561Z,12.40
2022-10-29T23:51:18.909Z,12.40
2022-10-29T23:53:46.052Z,12.30
2022-10-29T23:56:13.088Z,12.30
2022-10-29T23:58:40.129Z,12.30
